sensor_id;sensor_type;location;lat;lon;timestamp;temperature;humidity
41720;DHT22;27405;53.316;-6.294;2023-01-19T00:01:38;2.10;99.90
41720;DHT22;27405;53.316;-6.294;2023-01-19T00:04:04;2.20;99.90
41720;DHT22;27405;53.316;-6.294;2023-01-19T00:06:31;2.20;99.90
41720;DHT22;27405;53.316;-6.294;2023-01-19T00:08:56;2.20;99.90
41720;DHT22;27405;53.316;-6.294;2023-01-19T00:11:22;2.20;99.90
41720;DHT22;27405;53.316;-6.294;2023-01-19T00:13:48;2.20;99.90
41720;DHT22;27405;53.316;-6.294;2023-01-19T00:16:16;2.20;99.90
41720;DHT22;27405;53.316;-6.294;2023-01-19T00:18:43;2.20;99.90
41720;DHT22;27405;53.316;-6.294;2023-01-19T00:21:09;2.20;99.90
41720;DHT22;27405;53.316;-6.294;2023-01-19T00:23:35;2.20;99.90
41720;DHT22;27405;53.316;-6.294;2023-01-19T00:26:01;2.20;99.90
41720;DHT22;27405;53.316;-6.294;2023-01-19T00:28:26;2.20;99.90
41720;DHT22;27405;53.316;-6.294;2023-01-19T00:30:52;2.20;99.90
41720;DHT22;27405;53.316;-6.294;2023-01-19T00:33:18;2.20;99.90
41720;DHT22;27405;53.316;-6.294;2023-01-19T00:35:43;2.20;99.90
41720;DHT22;27405;53.316;-6.294;2023-01-19T00:41:09;2.20;99.90
41720;DHT22;27405;53.316;-6.294;2023-01-19T00:43:34;2.20;99.90
41720;DHT22;27405;53.316;-6.294;2023-01-19T00:46:00;2.10;99.90
41720;DHT22;27405;53.316;-6.294;2023-01-19T00:48:26;2.10;99.90
41720;DHT22;27405;53.316;-6.294;2023-01-19T00:50:51;2.10;99.90
41720;DHT22;27405;53.316;-6.294;2023-01-19T00:53:17;2.10;99.90
41720;DHT22;27405;53.316;-6.294;2023-01-19T00:55:43;2.10;99.90
41720;DHT22;27405;53.316;-6.294;2023-01-19T00:58:08;2.10;99.90
41720;DHT22;27405;53.316;-6.294;2023-01-19T01:00:34;2.10;99.90
41720;DHT22;27405;53.316;-6.294;2023-01-19T01:02:59;2.10;99.90
41720;DHT22;27405;53.316;-6.294;2023-01-19T01:05:25;2.10;99.90
41720;DHT22;27405;53.316;-6.294;2023-01-19T01:07:51;2.10;99.90
41720;DHT22;27405;53.316;-6.294;2023-01-19T01:10:21;2.00;99.90
41720;DHT22;27405;53.316;-6.294;2023-01-19T01:12:47;2.10;99.90
41720;DHT22;27405;53.316;-6.294;2023-01-19T01:15:14;2.00;99.90
41720;DHT22;27405;53.316;-6.294;2023-01-19T01:17:40;2.10;99.90
41720;DHT22;27405;53.316;-6.294;2023-01-19T01:20:23;2.10;99.90
41720;DHT22;27405;53.316;-6.294;2023-01-19T01:22:51;2.10;99.90
41720;DHT22;27405;53.316;-6.294;2023-01-19T01:25:19;2.10;99.90
41720;DHT22;27405;53.316;-6.294;2023-01-19T01:27:46;2.10;99.90
41720;DHT22;27405;53.316;-6.294;2023-01-19T01:30:13;2.20;99.90
41720;DHT22;27405;53.316;-6.294;2023-01-19T01:32:39;2.20;99.90
41720;DHT22;27405;53.316;-6.294;2023-01-19T01:35:05;2.20;99.90
41720;DHT22;27405;53.316;-6.294;2023-01-19T01:37:33;2.20;99.90
41720;DHT22;27405;53.316;-6.294;2023-01-19T01:39:59;2.20;99.90
41720;DHT22;27405;53.316;-6.294;2023-01-19T01:42:29;2.20;99.90
41720;DHT22;27405;53.316;-6.294;2023-01-19T01:45:01;2.20;99.90
41720;DHT22;27405;53.316;-6.294;2023-01-19T01:47:45;2.30;99.90
41720;DHT22;27405;53.316;-6.294;2023-01-19T01:50:48;2.30;99.90
41720;DHT22;27405;53.316;-6.294;2023-01-19T01:53:28;2.30;99.90
41720;DHT22;27405;53.316;-6.294;2023-01-19T01:55:55;2.30;99.90
41720;DHT22;27405;53.316;-6.294;2023-01-19T01:58:21;2.30;99.90
41720;DHT22;27405;53.316;-6.294;2023-01-19T02:00:47;2.30;99.90
41720;DHT22;27405;53.316;-6.294;2023-01-19T02:03:31;2.30;99.90
41720;DHT22;27405;53.316;-6.294;2023-01-19T02:06:00;2.30;99.90
41720;DHT22;27405;53.316;-6.294;2023-01-19T02:11:13;2.40;99.90
41720;DHT22;27405;53.316;-6.294;2023-01-19T02:13:59;2.40;99.90
41720;DHT22;27405;53.316;-6.294;2023-01-19T02:16:25;2.40;99.90
41720;DHT22;27405;53.316;-6.294;2023-01-19T02:18:50;2.40;99.90
41720;DHT22;27405;53.316;-6.294;2023-01-19T02:24:26;2.40;99.90
41720;DHT22;27405;53.316;-6.294;2023-01-19T02:26:54;2.40;99.90
41720;DHT22;27405;53.316;-6.294;2023-01-19T02:29:21;2.40;99.90
41720;DHT22;27405;53.316;-6.294;2023-01-19T02:31:48;2.40;99.90
41720;DHT22;27405;53.316;-6.294;2023-01-19T02:34:16;2.40;99.90
41720;DHT22;27405;53.316;-6.294;2023-01-19T02:36:53;2.40;99.90
41720;DHT22;27405;53.316;-6.294;2023-01-19T02:39:26;2.40;99.90
41720;DHT22;27405;53.316;-6.294;2023-01-19T02:41:58;2.40;99.90
41720;DHT22;27405;53.316;-6.294;2023-01-19T02:44:26;2.40;99.90
41720;DHT22;27405;53.316;-6.294;2023-01-19T02:46:53;2.40;99.90
41720;DHT22;27405;53.316;-6.294;2023-01-19T02:49:19;2.40;99.90
41720;DHT22;27405;53.316;-6.294;2023-01-19T02:51:45;2.40;99.90
41720;DHT22;27405;53.316;-6.294;2023-01-19T02:57:16;2.40;99.90
41720;DHT22;27405;53.316;-6.294;2023-01-19T02:59:45;2.40;99.90
41720;DHT22;27405;53.316;-6.294;2023-01-19T03:02:16;2.50;99.90
41720;DHT22;27405;53.316;-6.294;2023-01-19T03:07:43;2.50;99.90
41720;DHT22;27405;53.316;-6.294;2023-01-19T03:13:40;2.40;99.90
41720;DHT22;27405;53.316;-6.294;2023-01-19T03:16:33;2.50;99.90
41720;DHT22;27405;53.316;-6.294;2023-01-19T03:19:07;2.50;99.90
41720;DHT22;27405;53.316;-6.294;2023-01-19T03:21:36;2.50;99.90
41720;DHT22;27405;53.316;-6.294;2023-01-19T03:24:04;2.50;99.90
41720;DHT22;27405;53.316;-6.294;2023-01-19T03:26:31;2.50;99.90
41720;DHT22;27405;53.316;-6.294;2023-01-19T03:29:02;2.40;99.90
41720;DHT22;27405;53.316;-6.294;2023-01-19T03:31:30;2.40;99.90
41720;DHT22;27405;53.316;-6.294;2023-01-19T03:34:00;2.40;99.90
41720;DHT22;27405;53.316;-6.294;2023-01-19T03:36:31;2.40;99.90
41720;DHT22;27405;53.316;-6.294;2023-01-19T03:39:00;2.40;99.90
41720;DHT22;27405;53.316;-6.294;2023-01-19T03:41:27;2.40;99.90
41720;DHT22;27405;53.316;-6.294;2023-01-19T03:43:55;2.40;99.90
41720;DHT22;27405;53.316;-6.294;2023-01-19T03:46:23;2.40;99.90
41720;DHT22;27405;53.316;-6.294;2023-01-19T03:48:50;2.40;99.90
41720;DHT22;27405;53.316;-6.294;2023-01-19T03:51:16;2.40;99.90
41720;DHT22;27405;53.316;-6.294;2023-01-19T03:53:44;2.40;99.90
41720;DHT22;27405;53.316;-6.294;2023-01-19T03:56:23;2.40;99.90
41720;DHT22;27405;53.316;-6.294;2023-01-19T03:58:49;2.40;99.90
41720;DHT22;27405;53.316;-6.294;2023-01-19T04:01:16;2.40;99.90
41720;DHT22;27405;53.316;-6.294;2023-01-19T04:03:42;2.40;99.90
41720;DHT22;27405;53.316;-6.294;2023-01-19T04:06:09;2.40;99.90
41720;DHT22;27405;53.316;-6.294;2023-01-19T04:08:35;2.40;99.90
41720;DHT22;27405;53.316;-6.294;2023-01-19T04:11:01;2.40;99.90
41720;DHT22;27405;53.316;-6.294;2023-01-19T04:13:27;2.40;99.90
41720;DHT22;27405;53.316;-6.294;2023-01-19T04:15:58;2.50;99.90
41720;DHT22;27405;53.316;-6.294;2023-01-19T04:18:23;2.40;99.90
41720;DHT22;27405;53.316;-6.294;2023-01-19T04:20:49;2.50;99.90
41720;DHT22;27405;53.316;-6.294;2023-01-19T04:23:15;2.40;99.90
41720;DHT22;27405;53.316;-6.294;2023-01-19T04:25:40;2.40;99.90
41720;DHT22;27405;53.316;-6.294;2023-01-19T04:28:06;2.40;99.90
41720;DHT22;27405;53.316;-6.294;2023-01-19T04:30:32;2.40;99.90
41720;DHT22;27405;53.316;-6.294;2023-01-19T04:32:58;2.40;99.90
41720;DHT22;27405;53.316;-6.294;2023-01-19T04:35:24;2.40;99.90
41720;DHT22;27405;53.316;-6.294;2023-01-19T04:37:50;2.40;99.90
41720;DHT22;27405;53.316;-6.294;2023-01-19T04:40:15;2.40;99.90
41720;DHT22;27405;53.316;-6.294;2023-01-19T04:42:44;2.40;99.90
41720;DHT22;27405;53.316;-6.294;2023-01-19T04:45:11;2.40;99.90
41720;DHT22;27405;53.316;-6.294;2023-01-19T04:47:37;2.40;99.90
41720;DHT22;27405;53.316;-6.294;2023-01-19T04:50:03;2.30;99.90
41720;DHT22;27405;53.316;-6.294;2023-01-19T04:52:32;2.30;99.90
41720;DHT22;27405;53.316;-6.294;2023-01-19T04:55:02;2.30;99.90
41720;DHT22;27405;53.316;-6.294;2023-01-19T04:57:28;2.30;99.90
41720;DHT22;27405;53.316;-6.294;2023-01-19T04:59:55;2.20;99.90
41720;DHT22;27405;53.316;-6.294;2023-01-19T05:02:22;2.20;99.90
41720;DHT22;27405;53.316;-6.294;2023-01-19T05:04:47;2.10;99.90
41720;DHT22;27405;53.316;-6.294;2023-01-19T05:07:13;2.10;99.90
41720;DHT22;27405;53.316;-6.294;2023-01-19T05:09:39;2.10;99.90
41720;DHT22;27405;53.316;-6.294;2023-01-19T05:12:05;2.00;99.90
41720;DHT22;27405;53.316;-6.294;2023-01-19T05:14:30;2.00;99.90
41720;DHT22;27405;53.316;-6.294;2023-01-19T05:16:56;2.00;99.90
41720;DHT22;27405;53.316;-6.294;2023-01-19T05:19:22;2.00;99.90
41720;DHT22;27405;53.316;-6.294;2023-01-19T05:21:48;2.00;99.90
41720;DHT22;27405;53.316;-6.294;2023-01-19T05:24:14;1.90;99.90
41720;DHT22;27405;53.316;-6.294;2023-01-19T05:26:40;1.90;99.90
41720;DHT22;27405;53.316;-6.294;2023-01-19T05:29:05;1.90;99.90
41720;DHT22;27405;53.316;-6.294;2023-01-19T05:31:31;1.90;99.90
41720;DHT22;27405;53.316;-6.294;2023-01-19T05:33:57;1.90;99.90
41720;DHT22;27405;53.316;-6.294;2023-01-19T05:36:22;1.90;99.90
41720;DHT22;27405;53.316;-6.294;2023-01-19T05:38:48;1.80;99.90
41720;DHT22;27405;53.316;-6.294;2023-01-19T05:41:14;1.80;99.90
41720;DHT22;27405;53.316;-6.294;2023-01-19T05:43:39;1.80;99.90
41720;DHT22;27405;53.316;-6.294;2023-01-19T05:46:05;1.70;99.90
41720;DHT22;27405;53.316;-6.294;2023-01-19T05:48:31;1.80;99.90
41720;DHT22;27405;53.316;-6.294;2023-01-19T05:51:00;1.70;99.90
41720;DHT22;27405;53.316;-6.294;2023-01-19T05:53:26;1.70;99.90
41720;DHT22;27405;53.316;-6.294;2023-01-19T05:55:52;1.70;99.90
41720;DHT22;27405;53.316;-6.294;2023-01-19T05:58:18;1.60;99.90
41720;DHT22;27405;53.316;-6.294;2023-01-19T06:00:44;1.60;99.90
41720;DHT22;27405;53.316;-6.294;2023-01-19T06:03:09;1.60;99.90
41720;DHT22;27405;53.316;-6.294;2023-01-19T06:05:35;1.60;99.90
41720;DHT22;27405;53.316;-6.294;2023-01-19T06:08:02;1.50;99.90
41720;DHT22;27405;53.316;-6.294;2023-01-19T06:10:28;1.50;99.90
41720;DHT22;27405;53.316;-6.294;2023-01-19T06:12:55;1.40;99.90
41720;DHT22;27405;53.316;-6.294;2023-01-19T06:15:21;1.50;99.90
41720;DHT22;27405;53.316;-6.294;2023-01-19T06:17:47;1.50;99.90
41720;DHT22;27405;53.316;-6.294;2023-01-19T06:20:13;1.50;99.90
41720;DHT22;27405;53.316;-6.294;2023-01-19T06:22:38;1.50;99.90
41720;DHT22;27405;53.316;-6.294;2023-01-19T06:25:04;1.50;99.90
41720;DHT22;27405;53.316;-6.294;2023-01-19T06:27:30;1.50;99.90
41720;DHT22;27405;53.316;-6.294;2023-01-19T06:29:56;1.50;99.90
41720;DHT22;27405;53.316;-6.294;2023-01-19T06:32:21;1.50;99.90
41720;DHT22;27405;53.316;-6.294;2023-01-19T06:34:47;1.50;99.90
41720;DHT22;27405;53.316;-6.294;2023-01-19T06:37:13;1.50;99.90
41720;DHT22;27405;53.316;-6.294;2023-01-19T06:39:41;1.60;99.90
41720;DHT22;27405;53.316;-6.294;2023-01-19T06:42:07;1.60;99.90
41720;DHT22;27405;53.316;-6.294;2023-01-19T06:44:33;1.60;99.90
41720;DHT22;27405;53.316;-6.294;2023-01-19T06:46:59;1.70;99.90
41720;DHT22;27405;53.316;-6.294;2023-01-19T06:49:25;1.80;99.90
41720;DHT22;27405;53.316;-6.294;2023-01-19T06:51:50;1.80;99.90
41720;DHT22;27405;53.316;-6.294;2023-01-19T06:54:16;1.80;99.90
41720;DHT22;27405;53.316;-6.294;2023-01-19T06:56:42;1.90;99.90
41720;DHT22;27405;53.316;-6.294;2023-01-19T06:59:07;1.90;99.90
41720;DHT22;27405;53.316;-6.294;2023-01-19T07:01:34;2.00;99.90
41720;DHT22;27405;53.316;-6.294;2023-01-19T07:04:00;2.00;99.90
41720;DHT22;27405;53.316;-6.294;2023-01-19T07:06:26;2.00;99.90
41720;DHT22;27405;53.316;-6.294;2023-01-19T07:08:53;2.00;99.90
41720;DHT22;27405;53.316;-6.294;2023-01-19T07:11:19;2.00;99.90
41720;DHT22;27405;53.316;-6.294;2023-01-19T07:13:44;2.10;99.90
41720;DHT22;27405;53.316;-6.294;2023-01-19T07:16:16;2.10;99.90
41720;DHT22;27405;53.316;-6.294;2023-01-19T07:18:42;2.10;99.90
41720;DHT22;27405;53.316;-6.294;2023-01-19T07:21:08;2.10;99.90
41720;DHT22;27405;53.316;-6.294;2023-01-19T07:23:34;2.10;99.90
41720;DHT22;27405;53.316;-6.294;2023-01-19T07:26:00;2.10;99.90
41720;DHT22;27405;53.316;-6.294;2023-01-19T07:28:29;2.10;99.90
41720;DHT22;27405;53.316;-6.294;2023-01-19T07:30:56;2.20;99.90
41720;DHT22;27405;53.316;-6.294;2023-01-19T07:33:22;2.20;99.90
41720;DHT22;27405;53.316;-6.294;2023-01-19T07:35:49;2.20;99.90
41720;DHT22;27405;53.316;-6.294;2023-01-19T07:38:15;2.30;99.90
41720;DHT22;27405;53.316;-6.294;2023-01-19T07:40:42;2.30;99.90
41720;DHT22;27405;53.316;-6.294;2023-01-19T07:43:08;2.30;99.90
41720;DHT22;27405;53.316;-6.294;2023-01-19T07:45:34;2.40;99.90
41720;DHT22;27405;53.316;-6.294;2023-01-19T07:48:00;2.40;99.90
41720;DHT22;27405;53.316;-6.294;2023-01-19T07:50:26;2.50;99.90
41720;DHT22;27405;53.316;-6.294;2023-01-19T07:52:54;2.50;99.90
41720;DHT22;27405;53.316;-6.294;2023-01-19T07:55:21;2.50;99.90
41720;DHT22;27405;53.316;-6.294;2023-01-19T07:57:51;2.60;99.90
41720;DHT22;27405;53.316;-6.294;2023-01-19T08:00:18;2.60;99.90
41720;DHT22;27405;53.316;-6.294;2023-01-19T08:02:46;2.60;99.90
41720;DHT22;27405;53.316;-6.294;2023-01-19T08:05:15;2.60;99.90
41720;DHT22;27405;53.316;-6.294;2023-01-19T08:07:41;2.60;99.90
41720;DHT22;27405;53.316;-6.294;2023-01-19T08:10:08;2.70;99.90
41720;DHT22;27405;53.316;-6.294;2023-01-19T08:12:33;2.60;99.90
41720;DHT22;27405;53.316;-6.294;2023-01-19T08:14:59;2.70;99.90
41720;DHT22;27405;53.316;-6.294;2023-01-19T08:17:25;2.60;99.90
41720;DHT22;27405;53.316;-6.294;2023-01-19T08:19:50;2.60;99.90
41720;DHT22;27405;53.316;-6.294;2023-01-19T08:22:16;2.60;99.90
41720;DHT22;27405;53.316;-6.294;2023-01-19T08:24:42;2.60;99.90
41720;DHT22;27405;53.316;-6.294;2023-01-19T08:27:07;2.60;99.90
41720;DHT22;27405;53.316;-6.294;2023-01-19T08:29:36;2.60;99.90
41720;DHT22;27405;53.316;-6.294;2023-01-19T08:32:02;2.60;99.90
41720;DHT22;27405;53.316;-6.294;2023-01-19T08:34:28;2.60;99.90
41720;DHT22;27405;53.316;-6.294;2023-01-19T08:36:57;2.60;99.90
41720;DHT22;27405;53.316;-6.294;2023-01-19T08:39:24;2.50;99.90
41720;DHT22;27405;53.316;-6.294;2023-01-19T08:41:50;2.50;99.90
41720;DHT22;27405;53.316;-6.294;2023-01-19T08:44:16;2.50;99.90
41720;DHT22;27405;53.316;-6.294;2023-01-19T08:46:41;2.60;99.90
41720;DHT22;27405;53.316;-6.294;2023-01-19T08:49:07;2.60;99.90
41720;DHT22;27405;53.316;-6.294;2023-01-19T08:51:33;2.60;99.90
41720;DHT22;27405;53.316;-6.294;2023-01-19T08:53:59;2.60;99.90
41720;DHT22;27405;53.316;-6.294;2023-01-19T08:56:25;2.70;99.90
41720;DHT22;27405;53.316;-6.294;2023-01-19T08:58:51;2.70;99.90
41720;DHT22;27405;53.316;-6.294;2023-01-19T09:01:16;2.70;99.90
41720;DHT22;27405;53.316;-6.294;2023-01-19T09:03:45;2.70;99.90
41720;DHT22;27405;53.316;-6.294;2023-01-19T09:06:12;2.80;99.90
41720;DHT22;27405;53.316;-6.294;2023-01-19T09:08:39;2.80;99.90
41720;DHT22;27405;53.316;-6.294;2023-01-19T09:11:12;2.80;99.90
41720;DHT22;27405;53.316;-6.294;2023-01-19T09:13:39;2.80;99.90
41720;DHT22;27405;53.316;-6.294;2023-01-19T09:16:06;2.80;99.90
41720;DHT22;27405;53.316;-6.294;2023-01-19T09:18:33;2.90;99.90
41720;DHT22;27405;53.316;-6.294;2023-01-19T09:20:59;2.90;99.90
41720;DHT22;27405;53.316;-6.294;2023-01-19T09:23:25;2.90;99.90
41720;DHT22;27405;53.316;-6.294;2023-01-19T09:25:56;2.90;99.90
41720;DHT22;27405;53.316;-6.294;2023-01-19T09:28:22;2.90;99.90
41720;DHT22;27405;53.316;-6.294;2023-01-19T09:30:48;3.00;99.90
41720;DHT22;27405;53.316;-6.294;2023-01-19T09:33:16;3.00;99.90
41720;DHT22;27405;53.316;-6.294;2023-01-19T09:35:43;2.90;99.90
41720;DHT22;27405;53.316;-6.294;2023-01-19T09:38:09;2.90;99.90
41720;DHT22;27405;53.316;-6.294;2023-01-19T09:40:40;2.90;99.90
41720;DHT22;27405;53.316;-6.294;2023-01-19T09:46:00;2.80;99.90
41720;DHT22;27405;53.316;-6.294;2023-01-19T09:51:04;2.70;99.90
41720;DHT22;27405;53.316;-6.294;2023-01-19T09:53:52;2.70;99.90
41720;DHT22;27405;53.316;-6.294;2023-01-19T09:56:20;2.70;99.90
41720;DHT22;27405;53.316;-6.294;2023-01-19T09:58:48;2.60;99.90
41720;DHT22;27405;53.316;-6.294;2023-01-19T10:10:12;2.60;99.90
41720;DHT22;27405;53.316;-6.294;2023-01-19T10:21:07;2.70;99.90
41720;DHT22;27405;53.316;-6.294;2023-01-19T10:23:47;2.70;99.90
41720;DHT22;27405;53.316;-6.294;2023-01-19T10:26:17;2.80;99.90
41720;DHT22;27405;53.316;-6.294;2023-01-19T10:28:47;2.80;99.90
41720;DHT22;27405;53.316;-6.294;2023-01-19T10:31:16;2.80;99.90
41720;DHT22;27405;53.316;-6.294;2023-01-19T10:33:43;2.80;99.90
41720;DHT22;27405;53.316;-6.294;2023-01-19T10:36:16;2.90;99.90
41720;DHT22;27405;53.316;-6.294;2023-01-19T10:38:43;2.90;99.90
41720;DHT22;27405;53.316;-6.294;2023-01-19T10:41:14;2.90;99.90
41720;DHT22;27405;53.316;-6.294;2023-01-19T10:43:45;3.00;99.90
41720;DHT22;27405;53.316;-6.294;2023-01-19T10:46:25;3.00;99.90
41720;DHT22;27405;53.316;-6.294;2023-01-19T10:48:54;3.10;99.90
41720;DHT22;27405;53.316;-6.294;2023-01-19T10:51:20;3.20;99.90
41720;DHT22;27405;53.316;-6.294;2023-01-19T10:56:24;3.30;99.90
41720;DHT22;27405;53.316;-6.294;2023-01-19T10:58:51;3.40;99.90
41720;DHT22;27405;53.316;-6.294;2023-01-19T11:03:43;3.60;99.90
41720;DHT22;27405;53.316;-6.294;2023-01-19T11:08:41;3.70;99.90
41720;DHT22;27405;53.316;-6.294;2023-01-19T11:11:08;3.80;99.90
41720;DHT22;27405;53.316;-6.294;2023-01-19T11:13:34;4.00;99.90
41720;DHT22;27405;53.316;-6.294;2023-01-19T11:18:36;4.00;99.90
41720;DHT22;27405;53.316;-6.294;2023-01-19T11:21:06;4.10;99.90
41720;DHT22;27405;53.316;-6.294;2023-01-19T11:23:40;4.10;99.90
41720;DHT22;27405;53.316;-6.294;2023-01-19T11:26:12;4.10;99.90
41720;DHT22;27405;53.316;-6.294;2023-01-19T11:28:47;4.10;99.90
41720;DHT22;27405;53.316;-6.294;2023-01-19T11:33:56;4.00;99.90
41720;DHT22;27405;53.316;-6.294;2023-01-19T11:36:30;4.00;99.90
41720;DHT22;27405;53.316;-6.294;2023-01-19T11:41:43;3.90;99.90
41720;DHT22;27405;53.316;-6.294;2023-01-19T11:46:51;3.90;99.90
41720;DHT22;27405;53.316;-6.294;2023-01-19T11:49:45;3.90;99.90
41720;DHT22;27405;53.316;-6.294;2023-01-19T11:57:26;3.90;99.90
41720;DHT22;27405;53.316;-6.294;2023-01-19T11:59:53;3.90;99.90
41720;DHT22;27405;53.316;-6.294;2023-01-19T12:02:26;3.90;99.90
41720;DHT22;27405;53.316;-6.294;2023-01-19T12:04:58;3.90;99.90
41720;DHT22;27405;53.316;-6.294;2023-01-19T12:07:29;3.90;99.90
41720;DHT22;27405;53.316;-6.294;2023-01-19T12:10:17;3.90;99.90
41720;DHT22;27405;53.316;-6.294;2023-01-19T12:12:45;4.00;99.90
41720;DHT22;27405;53.316;-6.294;2023-01-19T12:17:58;3.90;99.90
41720;DHT22;27405;53.316;-6.294;2023-01-19T12:25:51;4.00;99.90
41720;DHT22;27405;53.316;-6.294;2023-01-19T12:28:25;4.00;99.90
41720;DHT22;27405;53.316;-6.294;2023-01-19T12:30:54;4.00;99.90
41720;DHT22;27405;53.316;-6.294;2023-01-19T12:35:57;4.10;99.90
41720;DHT22;27405;53.316;-6.294;2023-01-19T12:44:13;4.10;99.90
41720;DHT22;27405;53.316;-6.294;2023-01-19T12:49:12;4.20;99.90
41720;DHT22;27405;53.316;-6.294;2023-01-19T12:54:20;4.20;99.90
41720;DHT22;27405;53.316;-6.294;2023-01-19T12:56:48;4.20;99.90
41720;DHT22;27405;53.316;-6.294;2023-01-19T12:59:35;4.20;99.90
41720;DHT22;27405;53.316;-6.294;2023-01-19T13:13:21;4.20;99.90
41720;DHT22;27405;53.316;-6.294;2023-01-19T13:15:47;4.20;99.90
41720;DHT22;27405;53.316;-6.294;2023-01-19T13:18:30;4.30;99.90
41720;DHT22;27405;53.316;-6.294;2023-01-19T13:21:04;4.30;99.90
41720;DHT22;27405;53.316;-6.294;2023-01-19T13:26:21;4.30;99.90
41720;DHT22;27405;53.316;-6.294;2023-01-19T13:28:54;4.30;99.90
41720;DHT22;27405;53.316;-6.294;2023-01-19T13:31:20;4.30;99.90
41720;DHT22;27405;53.316;-6.294;2023-01-19T13:33:49;4.30;99.90
41720;DHT22;27405;53.316;-6.294;2023-01-19T13:36:31;4.30;99.90
41720;DHT22;27405;53.316;-6.294;2023-01-19T13:39:00;4.40;99.90
41720;DHT22;27405;53.316;-6.294;2023-01-19T13:41:30;4.30;99.90
41720;DHT22;27405;53.316;-6.294;2023-01-19T13:46:33;4.40;99.90
41720;DHT22;27405;53.316;-6.294;2023-01-19T13:51:41;4.40;99.90
41720;DHT22;27405;53.316;-6.294;2023-01-19T13:54:14;4.50;99.90
41720;DHT22;27405;53.316;-6.294;2023-01-19T13:56:46;4.50;99.90
41720;DHT22;27405;53.316;-6.294;2023-01-19T13:59:12;4.50;99.90
41720;DHT22;27405;53.316;-6.294;2023-01-19T14:01:43;4.50;99.90
41720;DHT22;27405;53.316;-6.294;2023-01-19T14:04:29;4.50;99.90
41720;DHT22;27405;53.316;-6.294;2023-01-19T14:07:02;4.50;99.90
41720;DHT22;27405;53.316;-6.294;2023-01-19T14:09:29;4.50;99.90
41720;DHT22;27405;53.316;-6.294;2023-01-19T14:12:14;4.60;99.90
41720;DHT22;27405;53.316;-6.294;2023-01-19T14:14:42;4.60;99.90
41720;DHT22;27405;53.316;-6.294;2023-01-19T14:17:27;4.60;99.90
41720;DHT22;27405;53.316;-6.294;2023-01-19T14:19:55;4.60;99.90
41720;DHT22;27405;53.316;-6.294;2023-01-19T14:22:42;4.60;99.90
41720;DHT22;27405;53.316;-6.294;2023-01-19T14:25:31;4.70;99.90
41720;DHT22;27405;53.316;-6.294;2023-01-19T14:30:58;4.70;99.90
41720;DHT22;27405;53.316;-6.294;2023-01-19T14:33:35;4.70;99.90
41720;DHT22;27405;53.316;-6.294;2023-01-19T14:36:25;4.70;99.90
41720;DHT22;27405;53.316;-6.294;2023-01-19T14:38:53;4.80;99.90
41720;DHT22;27405;53.316;-6.294;2023-01-19T14:43:55;4.70;99.90
41720;DHT22;27405;53.316;-6.294;2023-01-19T14:46:21;4.70;99.90
41720;DHT22;27405;53.316;-6.294;2023-01-19T14:48:48;4.80;99.90
41720;DHT22;27405;53.316;-6.294;2023-01-19T14:51:20;4.80;99.90
41720;DHT22;27405;53.316;-6.294;2023-01-19T14:53:52;4.80;99.90
41720;DHT22;27405;53.316;-6.294;2023-01-19T14:56:32;4.80;99.90
41720;DHT22;27405;53.316;-6.294;2023-01-19T14:59:00;4.80;99.90
41720;DHT22;27405;53.316;-6.294;2023-01-19T15:01:27;4.80;99.90
41720;DHT22;27405;53.316;-6.294;2023-01-19T15:03:56;4.80;99.90
41720;DHT22;27405;53.316;-6.294;2023-01-19T15:06:23;4.80;99.90
41720;DHT22;27405;53.316;-6.294;2023-01-19T15:08:50;4.80;99.90
41720;DHT22;27405;53.316;-6.294;2023-01-19T15:11:33;4.80;99.90
41720;DHT22;27405;53.316;-6.294;2023-01-19T15:13:59;4.90;99.90
41720;DHT22;27405;53.316;-6.294;2023-01-19T15:16:26;4.90;99.90
41720;DHT22;27405;53.316;-6.294;2023-01-19T15:18:53;5.00;99.90
41720;DHT22;27405;53.316;-6.294;2023-01-19T15:21:20;5.00;99.90
41720;DHT22;27405;53.316;-6.294;2023-01-19T15:23:51;5.10;99.90
41720;DHT22;27405;53.316;-6.294;2023-01-19T15:26:35;5.10;99.90
41720;DHT22;27405;53.316;-6.294;2023-01-19T15:29:01;5.10;99.90
41720;DHT22;27405;53.316;-6.294;2023-01-19T15:31:27;5.10;99.90
41720;DHT22;27405;53.316;-6.294;2023-01-19T15:33:53;5.10;99.90
41720;DHT22;27405;53.316;-6.294;2023-01-19T15:36:20;5.10;99.90
41720;DHT22;27405;53.316;-6.294;2023-01-19T15:38:46;5.10;99.90
41720;DHT22;27405;53.316;-6.294;2023-01-19T15:41:22;5.10;99.90
41720;DHT22;27405;53.316;-6.294;2023-01-19T15:43:49;5.10;99.90
41720;DHT22;27405;53.316;-6.294;2023-01-19T15:46:15;5.10;99.90
41720;DHT22;27405;53.316;-6.294;2023-01-19T15:48:41;5.10;99.90
41720;DHT22;27405;53.316;-6.294;2023-01-19T15:51:17;5.10;99.90
41720;DHT22;27405;53.316;-6.294;2023-01-19T15:53:43;5.20;99.90
41720;DHT22;27405;53.316;-6.294;2023-01-19T15:56:14;5.20;99.90
41720;DHT22;27405;53.316;-6.294;2023-01-19T15:58:40;5.20;99.90
41720;DHT22;27405;53.316;-6.294;2023-01-19T16:01:14;5.20;99.90
41720;DHT22;27405;53.316;-6.294;2023-01-19T16:03:40;5.10;99.90
41720;DHT22;27405;53.316;-6.294;2023-01-19T16:06:07;5.00;99.90
41720;DHT22;27405;53.316;-6.294;2023-01-19T16:08:33;4.90;99.90
41720;DHT22;27405;53.316;-6.294;2023-01-19T16:11:07;4.80;99.90
41720;DHT22;27405;53.316;-6.294;2023-01-19T16:13:34;4.80;99.90
41720;DHT22;27405;53.316;-6.294;2023-01-19T16:16:04;4.70;99.90
41720;DHT22;27405;53.316;-6.294;2023-01-19T16:18:31;4.70;99.90
41720;DHT22;27405;53.316;-6.294;2023-01-19T16:20:57;4.60;99.90
41720;DHT22;27405;53.316;-6.294;2023-01-19T16:23:22;4.60;99.90
41720;DHT22;27405;53.316;-6.294;2023-01-19T16:25:59;4.50;99.90
41720;DHT22;27405;53.316;-6.294;2023-01-19T16:28:27;4.50;99.90
41720;DHT22;27405;53.316;-6.294;2023-01-19T16:30:53;4.40;99.90
41720;DHT22;27405;53.316;-6.294;2023-01-19T16:33:19;4.40;99.90
41720;DHT22;27405;53.316;-6.294;2023-01-19T16:35:44;4.30;99.90
41720;DHT22;27405;53.316;-6.294;2023-01-19T16:38:10;4.30;99.90
41720;DHT22;27405;53.316;-6.294;2023-01-19T16:40:36;4.20;99.90
41720;DHT22;27405;53.316;-6.294;2023-01-19T16:43:02;4.20;99.90
41720;DHT22;27405;53.316;-6.294;2023-01-19T16:45:27;4.10;99.90
41720;DHT22;27405;53.316;-6.294;2023-01-19T16:47:53;4.00;99.90
41720;DHT22;27405;53.316;-6.294;2023-01-19T16:50:19;4.00;99.90
41720;DHT22;27405;53.316;-6.294;2023-01-19T16:52:45;3.90;99.90
41720;DHT22;27405;53.316;-6.294;2023-01-19T16:55:11;3.90;99.90
41720;DHT22;27405;53.316;-6.294;2023-01-19T16:57:37;3.80;99.90
41720;DHT22;27405;53.316;-6.294;2023-01-19T17:00:06;3.80;99.90
41720;DHT22;27405;53.316;-6.294;2023-01-19T17:02:33;3.80;99.90
41720;DHT22;27405;53.316;-6.294;2023-01-19T17:04:59;3.70;99.90
41720;DHT22;27405;53.316;-6.294;2023-01-19T17:07:28;3.70;99.90
41720;DHT22;27405;53.316;-6.294;2023-01-19T17:09:54;3.70;99.90
41720;DHT22;27405;53.316;-6.294;2023-01-19T17:12:20;3.60;99.90
41720;DHT22;27405;53.316;-6.294;2023-01-19T17:14:52;3.60;99.90
41720;DHT22;27405;53.316;-6.294;2023-01-19T17:17:18;3.50;99.90
41720;DHT22;27405;53.316;-6.294;2023-01-19T17:19:44;3.50;99.90
41720;DHT22;27405;53.316;-6.294;2023-01-19T17:22:09;3.50;99.90
41720;DHT22;27405;53.316;-6.294;2023-01-19T17:24:37;3.50;99.90
41720;DHT22;27405;53.316;-6.294;2023-01-19T17:27:06;3.50;99.90
41720;DHT22;27405;53.316;-6.294;2023-01-19T17:29:32;3.40;99.90